createdAt,value
2022-10-31T00:01:23.271Z,51.40
2022-10-31T00:16:24.736Z,51.40
2022-10-31T00:31:26.197Z,51.40
2022-10-31T00:46:27.655Z,51.50
2022-10-31T01:01:29.238Z,51.50
2022-10-31T01:16:30.771Z,51.50
2022-10-31T01:31:32.225Z,51.40
2022-10-31T01:46:33.709Z,51.30
2022-10-31T02:01:35.239Z,51.30
2022-10-31T02:16:36.761Z,51.30
2022-10-31T02:31:38.258Z,51.20
2022-10-31T02:46:39.719Z,51.20
2022-10-31T03:01:41.216Z,51.20
2022-10-31T03:16:42.758Z,51.10
2022-10-31T03:31:44.209Z,50.40
2022-10-31T03:46:45.665Z,51.00
2022-10-31T04:01:47.359Z,51.00
2022-10-31T04:16:48.976Z,51.00
2022-10-31T04:31:50.439Z,50.90
2022-10-31T04:46:51.897Z,50.80
2022-10-31T05:01:53.409Z,50.80
2022-10-31T05:16:54.955Z,50.80
2022-10-31T05:31:56.396Z,50.60
2022-10-31T05:46:57.847Z,50.60
2022-10-31T06:01:59.316Z,50.60
2022-10-31T06:17:00.765Z,50.50
2022-10-31T06:32:02.224Z,50.30
2022-10-31T06:47:03.664Z,50.30
2022-10-31T07:02:05.202Z,50.30
2022-10-31T07:17:06.737Z,49.80
2022-10-31T07:32:08.178Z,49.30
2022-10-31T07:47:09.625Z,48.90
2022-10-31T08:02:11.114Z,48.70
2022-10-31T08:17:12.551Z,48.50
2022-10-31T08:32:13.999Z,48.60
2022-10-31T08:47:15.468Z,48.50
2022-10-31T09:17:42.962Z,48.30
2022-10-31T09:32:44.407Z,48.40
2022-10-31T09:47:45.872Z,48.20
2022-10-31T10:02:47.328Z,48.00
2022-10-31T10:17:48.878Z,47.60
2022-10-31T10:32:52.060Z,47.70
2022-10-31T10:47:53.736Z,47.70
2022-10-31T11:02:55.188Z,47.30
2022-10-31T11:17:56.677Z,47.40
2022-10-31T11:32:58.404Z,47.40
2022-10-31T11:48:00.309Z,46.10
2022-10-31T12:03:02.235Z,45.80
2022-10-31T12:18:03.972Z,45.50
2022-10-31T12:33:05.447Z,45.10
2022-10-31T12:48:06.898Z,44.50
2022-10-31T13:03:08.381Z,45.30
2022-10-31T13:18:09.836Z,45.20
2022-10-31T13:33:13.889Z,45.40
2022-10-31T13:48:15.354Z,45.80
2022-10-31T14:03:23.013Z,46.20
2022-10-31T14:18:32.368Z,46.50
2022-10-31T14:33:33.811Z,46.80
2022-10-31T14:48:35.286Z,47.20
2022-10-31T15:03:36.750Z,47.80
2022-10-31T15:18:38.203Z,48.30
2022-10-31T15:33:43.801Z,48.80
2022-10-31T15:48:48.571Z,49.10
2022-10-31T16:03:50.052Z,49.60
2022-10-31T16:18:51.531Z,50.00
2022-10-31T16:33:52.995Z,50.40
2022-10-31T16:48:54.455Z,50.90
2022-10-31T17:03:55.939Z,51.10
2022-10-31T17:18:57.481Z,51.60
2022-10-31T17:34:02.277Z,51.70
2022-10-31T17:49:04.927Z,51.60
2022-10-31T18:04:06.380Z,51.50
2022-10-31T18:19:07.844Z,51.70
2022-10-31T18:34:09.323Z,51.90
2022-10-31T18:49:10.790Z,52.10
2022-10-31T19:04:12.249Z,52.20
2022-10-31T19:19:13.711Z,52.20
2022-10-31T19:34:15.164Z,52.40
2022-10-31T19:49:16.609Z,53.10
2022-10-31T20:04:18.083Z,53.50
2022-10-31T20:19:19.534Z,53.90
2022-10-31T20:34:21.006Z,54.10
2022-10-31T20:49:22.516Z,54.30
2022-10-31T21:04:23.972Z,54.50
2022-10-31T21:19:25.432Z,54.60
2022-10-31T21:34:26.905Z,54.80
2022-10-31T21:49:28.359Z,55.00
2022-10-31T22:04:29.824Z,54.80
2022-10-31T22:19:31.500Z,54.80
2022-10-31T22:34:32.958Z,54.80
2022-10-31T22:49:34.416Z,54.70
2022-10-31T23:04:35.858Z,54.60
2022-10-31T23:19:37.316Z,54.60
2022-10-31T23:34:38.804Z,54.50
2022-10-31T23:49:40.289Z,54.50
